Time;durP1;ratioP1;P1;durP2;ratioP2;P2;SDS_P1;SDS_P2;PMS_P1;PMS_P2;Temp;Humidity;BMP_temperature;BMP_pressure;BME280_temperature;BME280_humidity;BME280_pressure;Samples;Min_cycle;Max_cycle;Signal;HPM_P1;HPM_P2
2022/08/25 00:01:27;;;;;;;6.15;3.22;;;20.70;52.80;;;;;;4979819;28;20090;-77
2022/08/25 00:03:52;;;;;;;3.10;2.78;;;20.60;53.00;;;;;;4965784;28;20066;-77
2022/08/25 00:06:18;;;;;;;4.70;2.58;;;20.60;52.90;;;;;;4982266;28;20514;-77
2022/08/25 00:08:44;;;;;;;5.20;2.95;;;20.60;53.20;;;;;;4967005;28;20503;-77
2022/08/25 00:11:12;;;;;;;5.78;2.83;;;20.60;53.30;;;;;;4966970;28;20527;-77
2022/08/25 00:13:40;;;;;;;5.65;2.83;;;20.50;53.40;;;;;;4995422;28;20041;-77
2022/08/25 00:16:05;;;;;;;3.85;3.00;;;20.50;53.50;;;;;;4969841;28;20041;-77
2022/08/25 00:18:32;;;;;;;5.90;2.95;;;20.50;53.70;;;;;;4979818;28;20042;-77
2022/08/25 00:20:57;;;;;;;6.07;3.35;;;20.40;53.80;;;;;;4983620;28;20048;-77
2022/08/25 00:23:23;;;;;;;6.82;3.25;;;20.40;53.90;;;;;;4997505;28;20057;-77
2022/08/25 00:25:49;;;;;;;6.90;3.00;;;20.40;54.00;;;;;;4975252;28;20041;-77
2022/08/25 00:28:15;;;;;;;5.03;3.20;;;20.40;54.10;;;;;;4989226;28;20037;-77
2022/08/25 00:30:41;;;;;;;5.00;3.28;;;20.40;54.30;;;;;;4985250;28;20030;-76
2022/08/25 00:33:07;;;;;;;5.25;3.35;;;20.30;54.50;;;;;;4965894;28;20041;-77
2022/08/25 00:35:32;;;;;;;7.13;3.15;;;20.30;54.60;;;;;;4965304;28;20577;-77
2022/08/25 00:37:58;;;;;;;5.30;3.08;;;20.20;54.60;;;;;;4966301;28;20049;-77
2022/08/25 00:40:24;;;;;;;4.57;3.28;;;20.30;54.80;;;;;;4998500;28;20471;-77
2022/08/25 00:42:49;;;;;;;4.57;3.17;;;20.20;54.90;;;;;;4980207;28;20468;-77
2022/08/25 00:45:15;;;;;;;5.38;3.72;;;20.20;55.10;;;;;;4995175;28;20046;-76
2022/08/25 00:47:40;;;;;;;8.27;3.78;;;20.20;55.20;;;;;;4980337;28;20088;-77
2022/08/25 00:50:07;;;;;;;5.82;3.33;;;20.20;55.30;;;;;;4968422;28;20049;-77
2022/08/25 00:52:41;;;;;;;4.97;3.40;;;20.10;55.40;;;;;;4965112;28;20033;-77
2022/08/25 00:55:12;;;;;;;6.60;3.40;;;20.10;55.70;;;;;;4966471;28;20045;-77
2022/08/25 00:58:06;;;;;;;4.85;3.53;;;20.10;55.60;;;;;;4986595;28;20038;-77
2022/08/25 01:00:35;;;;;;;4.85;3.40;;;20.10;56.20;;;;;;4986114;28;20041;-77
2022/08/25 01:03:00;;;;;;;6.22;3.50;;;20.00;56.40;;;;;;4980893;28;20044;-77
2022/08/25 01:05:26;;;;;;;4.53;3.72;;;20.00;55.90;;;;;;4963027;28;20400;-77
2022/08/25 01:07:52;;;;;;;6.78;3.97;;;19.90;55.90;;;;;;5012695;28;20037;-77
2022/08/25 01:10:17;;;;;;;8.25;3.90;;;20.00;56.00;;;;;;4980371;28;20037;-77
2022/08/25 01:12:43;;;;;;;6.35;4.10;;;19.90;56.10;;;;;;4980485;28;20046;-77
2022/08/25 01:15:10;;;;;;;7.15;3.30;;;19.90;56.30;;;;;;5008742;28;20072;-77
2022/08/25 01:17:47;;;;;;;11.20;3.85;;;19.90;56.40;;;;;;4980932;28;20492;-77
2022/08/25 01:20:14;;;;;;;10.13;4.20;;;19.80;56.70;;;;;;4994985;28;20084;-77
2022/08/25 01:22:40;;;;;;;7.63;3.88;;;19.80;56.50;;;;;;4964367;28;20053;-77
2022/08/25 01:25:15;;;;;;;5.85;3.63;;;19.80;56.50;;;;;;4981604;28;20088;-77
2022/08/25 01:27:40;;;;;;;5.57;3.60;;;19.80;57.00;;;;;;5002165;28;20431;-77
2022/08/25 01:30:06;;;;;;;5.45;4.10;;;19.80;56.80;;;;;;4982917;28;20034;-77
2022/08/25 01:32:32;;;;;;;5.63;3.90;;;19.70;56.90;;;;;;4978864;28;20047;-77
2022/08/25 01:34:58;;;;;;;4.15;3.72;;;19.70;56.90;;;;;;4965860;28;20037;-77
2022/08/25 01:37:23;;;;;;;4.13;3.60;;;19.70;57.10;;;;;;4968539;28;20061;-77
2022/08/25 01:39:49;;;;;;;6.25;3.90;;;19.60;57.10;;;;;;4996090;28;20038;-76
2022/08/25 01:42:47;;;;;;;6.63;3.88;;;19.60;57.30;;;;;;4980969;28;20033;-77
2022/08/25 01:45:12;;;;;;;6.03;3.53;;;19.60;57.70;;;;;;4983492;28;20504;-77
2022/08/25 01:47:38;;;;;;;4.32;3.72;;;19.60;57.30;;;;;;4983176;28;20038;-77
2022/08/25 01:50:04;;;;;;;7.28;3.53;;;19.50;57.40;;;;;;4996214;28;20041;-77
2022/08/25 01:52:43;;;;;;;6.72;3.97;;;19.50;57.50;;;;;;4979078;28;20449;-77
2022/08/25 01:55:09;;;;;;;8.02;4.00;;;19.50;57.90;;;;;;4981652;28;20087;-77
2022/08/25 01:57:34;;;;;;;7.57;4.13;;;19.50;57.80;;;;;;4956153;28;20041;-77
2022/08/25 02:00:00;;;;;;;9.32;4.13;;;19.40;57.80;;;;;;4997881;28;20037;-77
2022/08/25 02:02:26;;;;;;;5.57;4.10;;;19.40;58.00;;;;;;4972283;28;20076;-77
2022/08/25 02:04:51;;;;;;;4.93;4.07;;;19.40;58.00;;;;;;4967334;28;20038;-77
2022/08/25 02:07:17;;;;;;;5.13;3.92;;;19.40;58.30;;;;;;4984613;28;20184;-77
2022/08/25 02:09:43;;;;;;;9.05;4.10;;;19.30;58.40;;;;;;4971444;28;20030;-76
2022/08/25 02:12:08;;;;;;;6.05;4.30;;;19.30;58.50;;;;;;4985730;28;20141;-76
2022/08/25 02:14:35;;;;;;;5.75;3.88;;;19.30;58.60;;;;;;4994335;28;20530;-77
2022/08/25 02:17:01;;;;;;;4.78;4.15;;;19.30;58.70;;;;;;4987511;28;20030;-77
2022/08/25 02:19:26;;;;;;;3.92;3.53;;;19.30;58.80;;;;;;4989939;28;20042;-77
2022/08/25 02:21:52;;;;;;;8.65;4.07;;;19.30;58.90;;;;;;4993588;28;20080;-77
2022/08/25 02:24:18;;;;;;;5.18;3.58;;;19.20;58.80;;;;;;5004025;28;20034;-77
2022/08/25 02:26:43;;;;;;;4.40;3.78;;;19.20;59.00;;;;;;4990053;28;20126;-77
2022/08/25 02:29:09;;;;;;;4.68;4.10;;;19.10;58.90;;;;;;5007385;28;20483;-77
2022/08/25 02:31:36;;;;;;;5.30;4.13;;;19.10;59.00;;;;;;4995873;28;20093;-77
2022/08/25 02:34:02;;;;;;;5.57;3.63;;;19.10;59.20;;;;;;4975091;28;20028;-78
2022/08/25 02:36:28;;;;;;;6.40;3.70;;;19.10;59.30;;;;;;4985734;28;20513;-77
2022/08/25 02:38:53;;;;;;;7.38;4.03;;;19.10;59.30;;;;;;4981190;28;20084;-78
2022/08/25 02:41:22;;;;;;;4.97;3.85;;;19.10;59.30;;;;;;5000656;28;20567;-78
2022/08/25 02:43:48;;;;;;;6.57;3.80;;;19.00;59.50;;;;;;4972621;28;20076;-78
2022/08/25 02:46:14;;;;;;;4.90;4.28;;;19.00;59.50;;;;;;4969534;28;20030;-77
2022/08/25 02:48:39;;;;;;;6.28;4.43;;;19.00;59.60;;;;;;4979957;28;20104;-77
2022/08/25 02:51:05;;;;;;;4.75;4.10;;;18.90;59.70;;;;;;4967397;28;20034;-78
2022/08/25 02:53:31;;;;;;;5.32;3.88;;;18.90;59.70;;;;;;4983758;28;21124;-78
2022/08/25 02:55:56;;;;;;;5.28;4.05;;;18.90;59.80;;;;;;4964411;28;20647;-78
2022/08/25 02:58:22;;;;;;;7.22;3.97;;;18.90;59.90;;;;;;4967911;28;20029;-78
2022/08/25 03:00:48;;;;;;;6.05;4.28;;;18.80;60.00;;;;;;4999989;28;20045;-78
2022/08/25 03:03:13;;;;;;;6.15;3.80;;;18.80;60.20;;;;;;4964396;28;20064;-78
2022/08/25 03:05:39;;;;;;;5.72;4.00;;;18.80;60.20;;;;;;4980297;28;20045;-78
2022/08/25 03:08:05;;;;;;;6.50;4.45;;;18.80;60.30;;;;;;4980325;28;20034;-78
2022/08/25 03:10:31;;;;;;;5.10;4.22;;;18.80;60.40;;;;;;4965183;28;20110;-78
2022/08/25 03:12:56;;;;;;;5.90;4.15;;;18.70;60.40;;;;;;4966005;28;20072;-78
2022/08/25 03:15:24;;;;;;;7.70;4.50;;;18.70;60.50;;;;;;4968571;28;20216;-77
2022/08/25 03:17:50;;;;;;;6.18;4.18;;;18.70;60.60;;;;;;4980548;28;20033;-78
2022/08/25 03:20:15;;;;;;;6.72;4.32;;;18.70;60.80;;;;;;4962824;28;20056;-78
2022/08/25 03:22:41;;;;;;;5.15;3.78;;;18.60;60.80;;;;;;4995357;28;20077;-78
2022/08/25 03:27:51;;;;;;;5.78;4.20;;;18.60;61.10;;;;;;4969777;28;20318;-78
2022/08/25 03:30:16;;;;;;;6.03;4.07;;;18.60;61.00;;;;;;4999528;28;20050;-78
2022/08/25 03:32:42;;;;;;;4.70;4.20;;;18.50;61.00;;;;;;4985386;28;20038;-78
2022/08/25 03:35:08;;;;;;;8.32;5.28;;;18.50;61.20;;;;;;4984587;28;20438;-78
2022/08/25 03:37:33;;;;;;;6.57;4.50;;;18.50;61.50;;;;;;4984249;28;20041;-78
2022/08/25 03:39:59;;;;;;;6.63;4.22;;;18.50;61.40;;;;;;4981097;28;20121;-77
2022/08/25 03:42:25;;;;;;;5.28;4.07;;;18.40;61.50;;;;;;4970867;28;20034;-78
2022/08/25 03:44:50;;;;;;;6.05;4.45;;;18.40;61.60;;;;;;4996164;28;20452;-77
2022/08/25 03:47:16;;;;;;;7.18;4.25;;;18.40;61.70;;;;;;4973682;28;20029;-78
2022/08/25 03:49:42;;;;;;;4.72;3.88;;;18.40;61.80;;;;;;4987434;28;20531;-78
2022/08/25 03:52:07;;;;;;;5.60;4.45;;;18.40;61.90;;;;;;4971871;28;20395;-78
2022/08/25 03:54:33;;;;;;;5.65;4.18;;;18.30;61.90;;;;;;4982536;28;20026;-78
2022/08/25 03:56:58;;;;;;;5.78;4.57;;;18.30;62.00;;;;;;4998813;28;20042;-78
2022/08/25 03:59:25;;;;;;;7.25;5.00;;;18.30;62.20;;;;;;4982264;28;20053;-78
2022/08/25 04:01:51;;;;;;;7.95;4.38;;;18.30;62.30;;;;;;4999202;28;20037;-78
2022/08/25 04:04:17;;;;;;;5.85;4.82;;;18.20;62.20;;;;;;5000119;28;20044;-78
2022/08/25 04:06:42;;;;;;;12.07;4.13;;;18.20;62.50;;;;;;4980106;28;20053;-77
2022/08/25 04:09:08;;;;;;;5.80;4.35;;;18.20;62.50;;;;;;4954529;28;20577;-78
2022/08/25 04:11:34;;;;;;;6.55;4.50;;;18.20;62.60;;;;;;4965569;28;20033;-78
2022/08/25 04:14:01;;;;;;;6.40;4.50;;;18.10;62.60;;;;;;4967701;28;20057;-78
2022/08/25 04:16:32;;;;;;;5.72;4.35;;;18.10;62.70;;;;;;4970616;28;20029;-78
2022/08/25 04:18:58;;;;;;;6.43;4.85;;;18.10;62.90;;;;;;4957443;28;20101;-78
2022/08/25 04:21:24;;;;;;;7.10;4.07;;;18.10;62.90;;;;;;4998873;28;20076;-78
2022/08/25 04:23:50;;;;;;;6.50;4.60;;;18.00;62.90;;;;;;4980050;28;20435;-78
2022/08/25 04:26:18;;;;;;;5.28;4.55;;;18.00;63.00;;;;;;4984300;28;20112;-78
2022/08/25 04:28:45;;;;;;;6.30;4.78;;;18.00;63.20;;;;;;4960752;28;20080;-78
2022/08/25 04:31:11;;;;;;;8.48;5.07;;;18.00;63.30;;;;;;4998216;28;20045;-78
2022/08/25 04:33:37;;;;;;;7.18;5.07;;;18.00;63.40;;;;;;4979952;28;20117;-78
2022/08/25 04:36:04;;;;;;;6.93;5.00;;;18.00;63.60;;;;;;4967582;28;20128;-78
2022/08/25 04:38:29;;;;;;;5.63;4.35;;;17.90;63.80;;;;;;4965963;28;20053;-78
2022/08/25 04:40:57;;;;;;;5.95;4.22;;;17.90;63.70;;;;;;4964367;28;20054;-78
2022/08/25 04:43:22;;;;;;;6.78;4.60;;;17.90;63.70;;;;;;4979295;28;20091;-77
2022/08/25 04:45:48;;;;;;;5.70;4.40;;;17.90;63.80;;;;;;4981644;28;20046;-78
2022/08/25 04:48:13;;;;;;;7.93;4.00;;;17.90;63.90;;;;;;4997388;28;20034;-78
2022/08/25 04:50:39;;;;;;;9.93;5.25;;;17.90;64.00;;;;;;4981950;28;20108;-78
2022/08/25 04:53:04;;;;;;;5.18;4.50;;;17.90;64.00;;;;;;4965774;28;20037;-78
2022/08/25 04:55:30;;;;;;;8.73;4.75;;;17.80;64.00;;;;;;4967225;28;20045;-78
2022/08/25 04:57:55;;;;;;;9.10;4.57;;;17.80;64.20;;;;;;4983562;28;20034;-78
2022/08/25 05:00:21;;;;;;;5.47;4.85;;;17.80;64.30;;;;;;4960020;28;20040;-78
2022/08/25 05:02:46;;;;;;;6.82;5.05;;;17.80;64.50;;;;;;4979874;28;20050;-78
2022/08/25 05:05:12;;;;;;;4.93;4.20;;;17.80;64.60;;;;;;4982835;28;20042;-78
2022/08/25 05:07:37;;;;;;;5.38;4.40;;;17.80;64.60;;;;;;4962676;28;20053;-78
2022/08/25 05:10:03;;;;;;;6.78;4.55;;;17.80;64.70;;;;;;4971388;28;20041;-78
2022/08/25 05:12:29;;;;;;;6.68;4.55;;;17.80;64.70;;;;;;4981453;28;20057;-78
2022/08/25 05:14:54;;;;;;;7.97;5.15;;;17.80;64.90;;;;;;4980611;28;20033;-78
2022/08/25 05:17:20;;;;;;;7.20;5.10;;;17.70;65.00;;;;;;4981104;28;20117;-78
2022/08/25 05:19:45;;;;;;;6.78;5.18;;;17.70;65.00;;;;;;4995356;28;20041;-78
2022/08/25 05:22:11;;;;;;;7.50;5.38;;;17.70;65.10;;;;;;4985906;28;20064;-78
2022/08/25 05:24:37;;;;;;;6.80;4.35;;;17.70;65.40;;;;;;4966547;28;20049;-78
2022/08/25 05:27:02;;;;;;;7.00;5.13;;;17.70;65.40;;;;;;4981484;28;20121;-78
2022/08/25 05:29:28;;;;;;;8.00;4.80;;;17.70;65.60;;;;;;4963958;28;20042;-78
2022/08/25 05:31:53;;;;;;;8.20;5.38;;;17.70;66.00;;;;;;4982009;28;20029;-78
2022/08/25 05:34:19;;;;;;;7.03;5.05;;;17.70;65.80;;;;;;4985158;28;20029;-78
2022/08/25 05:36:45;;;;;;;8.02;5.45;;;17.70;66.10;;;;;;4980058;28;20037;-78
2022/08/25 05:39:10;;;;;;;8.50;5.88;;;17.70;66.20;;;;;;4982848;28;20088;-78
2022/08/25 05:41:36;;;;;;;10.30;6.47;;;17.70;66.30;;;;;;4996622;28;20033;-78
2022/08/25 05:44:02;;;;;;;8.63;6.05;;;17.70;66.50;;;;;;4951658;28;20404;-78
2022/08/25 05:46:27;;;;;;;10.40;6.82;;;17.80;66.90;;;;;;4979669;28;20033;-78
2022/08/25 05:48:53;;;;;;;10.77;6.05;;;17.70;67.00;;;;;;4981370;28;20597;-78
2022/08/25 05:51:18;;;;;;;8.80;6.13;;;17.80;68.00;;;;;;4981138;28;20041;-78
2022/08/25 05:53:45;;;;;;;10.18;6.00;;;17.80;67.40;;;;;;4963655;28;20034;-78
2022/08/25 05:56:12;;;;;;;10.63;6.22;;;17.80;67.50;;;;;;4966710;28;21572;-77
2022/08/25 05:58:38;;;;;;;9.70;5.65;;;17.80;67.70;;;;;;4981968;28;20057;-77
2022/08/25 06:03:52;;;;;;;10.60;6.25;;;18.00;67.90;;;;;;4979616;28;20577;-77
2022/08/25 06:06:17;;;;;;;13.45;6.82;;;18.00;68.00;;;;;;4982234;28;20068;-77
2022/08/25 06:08:43;;;;;;;13.63;6.15;;;18.10;68.10;;;;;;4963911;28;20042;-77
2022/08/25 06:11:10;;;;;;;12.45;5.90;;;18.10;68.40;;;;;;4963046;28;20456;-77
2022/08/25 06:13:35;;;;;;;7.22;5.88;;;18.20;68.30;;;;;;4996988;28;20478;-78
2022/08/25 06:16:01;;;;;;;9.23;6.00;;;18.30;68.30;;;;;;4988727;28;20054;-77
2022/08/25 06:18:26;;;;;;;10.93;5.78;;;18.30;68.40;;;;;;4998129;28;20042;-77
2022/08/25 06:20:52;;;;;;;10.65;6.55;;;18.40;68.40;;;;;;4964755;28;20046;-77
2022/08/25 06:23:20;;;;;;;11.48;5.88;;;18.50;68.40;;;;;;4980847;28;20629;-77
2022/08/25 06:25:49;;;;;;;10.73;6.47;;;18.60;68.50;;;;;;4951753;28;20036;-78
2022/08/25 06:28:15;;;;;;;13.30;5.70;;;18.70;68.80;;;;;;4980461;28;20117;-77
2022/08/25 06:30:41;;;;;;;15.55;6.68;;;18.80;69.00;;;;;;4980357;28;20129;-77
2022/08/25 06:33:06;;;;;;;10.15;5.85;;;18.90;68.70;;;;;;4982545;28;20043;-77
2022/08/25 06:35:32;;;;;;;11.82;6.25;;;19.00;68.60;;;;;;4963055;28;20052;-77
2022/08/25 06:37:57;;;;;;;11.10;6.63;;;19.10;68.70;;;;;;4980372;28;20458;-77
2022/08/25 06:40:23;;;;;;;16.17;7.53;;;19.20;68.60;;;;;;4982238;28;20381;-77
2022/08/25 06:42:49;;;;;;;12.38;7.10;;;19.30;68.60;;;;;;4981719;28;20044;-77
2022/08/25 06:45:14;;;;;;;10.70;6.70;;;19.50;68.50;;;;;;4981259;28;20042;-77
2022/08/25 06:47:40;;;;;;;11.70;6.97;;;19.60;68.30;;;;;;4964230;28;20038;-77
2022/08/25 06:50:06;;;;;;;12.65;6.55;;;19.70;68.20;;;;;;4979608;28;20214;-77
2022/08/25 06:52:31;;;;;;;12.45;7.20;;;19.80;68.00;;;;;;4978663;28;20384;-77
2022/08/25 06:54:57;;;;;;;13.43;7.43;;;20.00;67.90;;;;;;4980955;28;20436;-78
2022/08/25 06:57:22;;;;;;;18.42;7.00;;;20.10;67.80;;;;;;4995849;28;20064;-78
2022/08/25 06:59:48;;;;;;;13.85;7.45;;;20.30;67.80;;;;;;4993535;28;20486;-78
2022/08/25 07:02:13;;;;;;;10.38;6.75;;;20.40;67.60;;;;;;4981940;28;20039;-77
2022/08/25 07:04:39;;;;;;;10.15;6.82;;;20.50;67.40;;;;;;4984844;28;20034;-77
2022/08/25 07:07:04;;;;;;;10.27;7.55;;;20.60;67.20;;;;;;4969179;28;20026;-77
2022/08/25 07:09:30;;;;;;;14.95;7.35;;;20.80;67.10;;;;;;4968052;28;20037;-77
2022/08/25 07:11:56;;;;;;;10.65;6.85;;;21.00;67.00;;;;;;4968066;28;20026;-77
2022/08/25 07:14:22;;;;;;;8.55;6.55;;;21.20;66.70;;;;;;4981062;28;20050;-77
2022/08/25 07:16:47;;;;;;;11.95;6.82;;;21.30;66.40;;;;;;4997754;28;20087;-78
2022/08/25 07:19:13;;;;;;;9.05;6.93;;;21.40;66.10;;;;;;4982031;28;20037;-77
2022/08/25 07:21:40;;;;;;;16.35;6.97;;;21.60;65.90;;;;;;4999066;28;20022;-78
2022/08/25 07:24:10;;;;;;;9.88;6.82;;;21.80;65.60;;;;;;4984724;28;20501;-77
2022/08/25 07:26:36;;;;;;;12.18;6.70;;;22.00;65.50;;;;;;4969621;28;20113;-78
2022/08/25 07:29:03;;;;;;;10.82;6.57;;;22.10;65.10;;;;;;4985244;28;20086;-78
2022/08/25 07:31:28;;;;;;;10.40;7.78;;;22.30;64.80;;;;;;4984936;28;20109;-78
2022/08/25 07:36:38;;;;;;;11.73;7.03;;;22.70;64.40;;;;;;4996899;28;20057;-78
2022/08/25 07:39:04;;;;;;;9.13;7.78;;;22.90;63.90;;;;;;4976019;28;20026;-77
2022/08/25 07:41:32;;;;;;;10.80;7.75;;;23.10;63.60;;;;;;4986059;28;20053;-78
2022/08/25 07:43:58;;;;;;;9.88;7.75;;;23.30;63.40;;;;;;4981986;28;20065;-77
2022/08/25 07:46:23;;;;;;;12.07;8.55;;;23.40;63.10;;;;;;4981658;28;20045;-77
2022/08/25 07:48:49;;;;;;;9.50;6.75;;;23.60;62.80;;;;;;4975813;28;20072;-78
2022/08/25 07:51:14;;;;;;;10.07;7.45;;;23.80;62.40;;;;;;4983503;28;20124;-78
2022/08/25 07:53:40;;;;;;;11.73;6.80;;;24.00;62.10;;;;;;4979824;28;20041;-77
2022/08/25 07:56:13;;;;;;;8.70;7.20;;;24.10;61.80;;;;;;4969452;28;20066;-77
2022/08/25 07:58:39;;;;;;;10.18;7.10;;;24.30;61.50;;;;;;4976807;28;20045;-77
2022/08/25 08:01:05;;;;;;;8.93;7.50;;;24.50;61.10;;;;;;4970578;28;20041;-77
2022/08/25 08:03:32;;;;;;;8.30;7.07;;;24.60;60.80;;;;;;4987291;28;20536;-77
2022/08/25 08:05:59;;;;;;;10.50;6.45;;;24.80;60.50;;;;;;4984778;28;20132;-77
2022/08/25 08:08:24;;;;;;;11.05;7.57;;;25.00;60.20;;;;;;4980458;28;20030;-77
2022/08/25 08:10:51;;;;;;;9.38;7.43;;;25.20;59.90;;;;;;4999111;28;20096;-77
2022/08/25 08:13:16;;;;;;;8.52;6.43;;;25.30;59.60;;;;;;5003805;28;20026;-77
2022/08/25 08:15:42;;;;;;;12.85;7.25;;;25.50;59.30;;;;;;4942881;28;20136;-78
2022/08/25 08:18:08;;;;;;;11.85;6.80;;;25.70;59.10;;;;;;4990025;28;20048;-77
2022/08/25 08:20:34;;;;;;;9.50;6.88;;;25.80;58.80;;;;;;4974270;28;20033;-77
2022/08/25 08:22:59;;;;;;;7.70;6.18;;;26.00;58.50;;;;;;5000246;28;20065;-77
2022/08/25 08:25:25;;;;;;;9.50;6.82;;;26.20;58.30;;;;;;4973226;28;20048;-78
2022/08/25 08:27:50;;;;;;;11.27;7.10;;;26.40;58.10;;;;;;4988547;28;20046;-77
2022/08/25 08:30:16;;;;;;;10.77;7.07;;;26.60;57.70;;;;;;4973911;28;20042;-77
2022/08/25 08:32:42;;;;;;;14.50;7.28;;;26.80;57.40;;;;;;4991398;28;20034;-78
2022/08/25 08:35:08;;;;;;;14.57;7.57;;;27.00;57.10;;;;;;5007659;28;20038;-78
2022/08/25 08:37:33;;;;;;;10.00;7.28;;;27.10;56.70;;;;;;5010471;28;20026;-79
2022/08/25 08:40:00;;;;;;;7.72;6.53;;;27.40;56.50;;;;;;4983306;28;20089;-78
2022/08/25 08:42:48;;;;;;;8.23;6.45;;;27.50;56.20;;;;;;4992253;28;20042;-77
2022/08/25 08:45:32;;;;;;;8.00;6.50;;;27.70;55.80;;;;;;4995407;28;20030;-77
2022/08/25 08:48:21;;;;;;;6.95;5.72;;;28.00;55.30;;;;;;5016829;28;20065;-79
2022/08/25 08:51:17;;;;;;;6.82;5.60;;;28.20;55.10;;;;;;4989017;28;20049;-79
2022/08/25 08:54:12;;;;;;;7.18;5.75;;;28.40;54.40;;;;;;4973455;28;20117;-78
2022/08/25 08:56:40;;;;;;;6.25;5.65;;;28.60;53.90;;;;;;4957937;28;20033;-80
2022/08/25 08:59:17;;;;;;;6.28;5.60;;;28.80;53.80;;;;;;4967867;28;20119;-78
2022/08/25 09:01:49;;;;;;;7.45;6.03;;;29.00;53.20;;;;;;4972438;28;20042;-78
2022/08/25 09:04:36;;;;;;;6.63;5.63;;;29.20;52.90;;;;;;4968510;28;20470;-79
2022/08/25 09:07:03;;;;;;;6.82;5.53;;;29.40;52.60;;;;;;4984132;28;20034;-79
2022/08/25 09:09:31;;;;;;;7.03;5.47;;;29.60;52.30;;;;;;4963973;28;20030;-79
2022/08/25 09:12:02;;;;;;;7.90;5.38;;;29.70;51.80;;;;;;4941366;28;20026;-78
2022/08/25 09:14:30;;;;;;;;;;;29.90;51.40;;;;;;4979804;28;20049;-79
2022/08/25 09:17:18;;;;;;;6.38;5.20;;;30.00;51.30;;;;;;4996794;28;19953;-79
2022/08/25 09:20:08;;;;;;;6.13;4.55;;;30.10;50.60;;;;;;4980900;28;20033;-78
2022/08/25 09:22:51;;;;;;;8.07;5.25;;;30.20;50.00;;;;;;4958955;28;20049;-78
2022/08/25 09:25:52;;;;;;;6.90;4.50;;;30.30;50.00;;;;;;4998239;28;20521;-78
2022/08/25 09:28:28;;;;;;;7.45;5.07;;;30.50;49.80;;;;;;4977985;28;20046;-78
2022/08/25 09:31:00;;;;;;;5.90;5.30;;;30.70;49.80;;;;;;4982856;28;20045;-78
2022/08/25 09:33:26;;;;;;;6.13;5.43;;;30.80;49.30;;;;;;4956907;28;20922;-79
2022/08/25 09:35:53;;;;;;;6.50;5.47;;;31.00;49.00;;;;;;5009886;28;20124;-79
2022/08/25 09:38:18;;;;;;;8.18;5.47;;;31.20;48.70;;;;;;4965695;28;20102;-79
2022/08/25 09:40:46;;;;;;;6.25;4.80;;;31.30;48.30;;;;;;4978993;28;20906;-79
2022/08/25 09:43:22;;;;;;;6.75;5.47;;;31.50;48.10;;;;;;4970839;28;20071;-80
2022/08/25 09:45:55;;;;;;;5.30;4.80;;;31.60;47.40;;;;;;4980785;28;20033;-79
2022/08/25 09:48:25;;;;;;;6.65;4.90;;;31.70;47.40;;;;;;4973799;28;20038;-79
2022/08/25 09:50:51;;;;;;;6.00;5.50;;;31.80;47.10;;;;;;4978037;28;20048;-79
2022/08/25 09:53:17;;;;;;;6.90;4.70;;;31.90;46.80;;;;;;4965271;28;20045;-79
2022/08/25 09:55:43;;;;;;;7.68;5.20;;;32.00;46.50;;;;;;4977457;28;20042;-78
2022/08/25 09:58:20;;;;;;;6.88;4.88;;;32.10;46.30;;;;;;4965392;28;20120;-78
2022/08/25 10:01:01;;;;;;;5.38;4.82;;;32.20;45.60;;;;;;4963958;28;20048;-78
2022/08/25 10:03:27;;;;;;;8.60;4.45;;;32.40;45.70;;;;;;4970091;28;20115;-78
2022/08/25 10:06:11;;;;;;;7.78;4.90;;;32.50;46.30;;;;;;4980921;28;20528;-79
2022/08/25 10:08:44;;;;;;;8.95;4.82;;;32.60;44.80;;;;;;4982760;28;20037;-79
2022/08/25 10:11:13;;;;;;;6.65;4.95;;;32.70;45.00;;;;;;4978962;28;20502;-79
2022/08/25 10:13:50;;;;;;;8.27;5.10;;;32.80;44.70;;;;;;4958550;28;20045;-79
2022/08/25 10:16:32;;;;;;;6.60;5.38;;;33.00;43.90;;;;;;4980923;28;20038;-79
2022/08/25 10:19:04;;;;;;;7.57;4.80;;;33.10;43.40;;;;;;4965702;28;20125;-79
2022/08/25 10:21:30;;;;;;;5.40;4.60;;;33.30;43.60;;;;;;4978605;28;20507;-80
2022/08/25 10:23:56;;;;;;;6.47;5.00;;;33.40;43.50;;;;;;4968501;28;20052;-79
2022/08/25 10:26:30;;;;;;;7.90;4.90;;;33.60;43.30;;;;;;4998509;28;20067;-80
2022/08/25 10:28:59;;;;;;;6.38;5.18;;;33.80;42.30;;;;;;4979470;28;20121;-78
2022/08/25 10:31:36;;;;;;;5.60;4.57;;;33.90;42.40;;;;;;4978198;28;20148;-79
2022/08/25 10:34:15;;;;;;;5.45;4.65;;;34.10;42.00;;;;;;4964703;28;20037;-79
2022/08/25 10:37:06;;;;;;;6.40;4.75;;;34.30;41.80;;;;;;4980920;28;20042;-79
2022/08/25 10:39:41;;;;;;;5.03;4.53;;;34.50;41.40;;;;;;4968320;28;20046;-79
2022/08/25 10:42:06;;;;;;;6.15;5.00;;;34.60;41.00;;;;;;4998075;28;20162;-79
2022/08/25 10:47:41;;;;;;;6.35;4.88;;;34.80;40.80;;;;;;4972661;28;20133;-80
2022/08/25 10:50:48;;;;;;;5.93;4.63;;;34.80;40.30;;;;;;4985811;28;20033;-80
2022/08/25 10:53:26;;;;;;;5.57;4.85;;;34.90;40.40;;;;;;4920149;29;20039;-80
2022/08/25 10:56:20;;;;;;;7.40;4.65;;;35.00;40.00;;;;;;4899368;29;20040;-79
2022/08/25 10:59:05;;;;;;;7.07;4.72;;;35.20;39.50;;;;;;4921724;29;20039;-79
2022/08/25 11:01:37;;;;;;;5.80;4.63;;;35.20;39.80;;;;;;4920649;28;21076;-80
2022/08/25 11:04:07;;;;;;;7.20;4.20;;;35.20;39.50;;;;;;4921991;29;20071;-79
2022/08/25 11:06:42;;;;;;;6.72;4.90;;;35.30;39.30;;;;;;4889169;29;20047;-80
2022/08/25 11:09:11;;;;;;;6.50;4.95;;;35.30;39.10;;;;;;4906246;29;20391;-80
2022/08/25 11:11:39;;;;;;;5.80;4.10;;;35.50;38.90;;;;;;4905766;29;20028;-79
2022/08/25 11:14:08;;;;;;;6.35;4.20;;;35.60;38.70;;;;;;4905624;28;20027;-80
2022/08/25 11:16:55;;;;;;;7.07;4.25;;;35.80;38.40;;;;;;4897762;28;20039;-80
2022/08/25 11:19:25;;;;;;;5.93;4.47;;;35.90;37.40;;;;;;4919325;29;20043;-79
2022/08/25 11:21:57;;;;;;;6.20;4.55;;;36.10;37.80;;;;;;4908464;29;20039;-80
2022/08/25 11:25:08;;;;;;;9.02;4.60;;;36.20;37.60;;;;;;4960865;28;20096;-81
2022/08/25 11:27:56;;;;;;;4.68;4.28;;;36.20;37.00;;;;;;4975123;28;20114;-80
2022/08/25 11:30:22;;;;;;;4.05;3.65;;;36.20;37.20;;;;;;4986189;28;20725;-80
2022/08/25 11:32:49;;;;;;;3.55;3.25;;;36.20;37.20;;;;;;4964346;28;20043;-80
2022/08/25 11:35:24;;;;;;;4.10;3.53;;;36.20;37.00;;;;;;4984726;28;20090;-80
2022/08/25 11:38:21;;;;;;;4.35;3.95;;;36.10;37.00;;;;;;4976724;28;20030;-80
2022/08/25 11:41:02;;;;;;;5.97;3.88;;;35.90;36.30;;;;;;4985619;28;20558;-80
2022/08/25 11:43:31;;;;;;;;;;;35.80;36.70;;;;;;4968079;28;20042;-80
2022/08/25 11:46:27;;;;;;;3.90;3.47;;;35.70;37.00;;;;;;4984613;28;19922;-80
2022/08/25 11:48:55;;;;;;;6.97;3.80;;;35.70;36.50;;;;;;4980866;28;20045;-81
2022/08/25 11:51:42;;;;;;;5.60;4.05;;;35.60;36.80;;;;;;4999752;28;20053;-81
2022/08/25 11:54:27;;;;;;;4.95;3.72;;;35.60;36.20;;;;;;4983942;28;20522;-80
2022/08/25 11:57:06;;;;;;;6.03;3.70;;;35.50;36.20;;;;;;4985058;28;20049;-80
2022/08/25 11:59:50;;;;;;;6.78;3.28;;;35.50;36.40;;;;;;4986647;28;20392;-80
2022/08/25 12:02:35;;;;;;;3.75;2.90;;;35.50;35.90;;;;;;5003845;28;20034;-79
2022/08/25 12:05:21;;;;;;;18.58;4.55;;;35.40;35.80;;;;;;5000323;28;20038;-81
2022/08/25 12:07:47;;;;;;;17.55;4.35;;;35.30;36.10;;;;;;4996787;28;20048;-80
2022/08/25 12:10:20;;;;;;;17.35;4.13;;;35.30;36.80;;;;;;5004219;28;20039;-80
2022/08/25 12:13:02;;;;;;;4.93;3.17;;;35.20;35.70;;;;;;4967685;28;20432;-80
2022/08/25 12:15:41;;;;;;;4.22;2.83;;;35.10;35.70;;;;;;4981395;28;20042;-79
2022/08/25 12:18:14;;;;;;;5.43;2.83;;;35.10;35.60;;;;;;4982495;28;20034;-79
2022/08/25 12:21:06;;;;;;;5.88;3.20;;;35.00;35.50;;;;;;5002352;28;20053;-80
2022/08/25 12:24:02;;;;;;;3.58;3.25;;;35.00;35.10;;;;;;4993267;28;21111;-79
2022/08/25 12:26:48;;;;;;;3.35;3.00;;;35.10;35.10;;;;;;4977393;28;20042;-79
2022/08/25 12:29:20;;;;;;;5.53;3.05;;;35.20;35.40;;;;;;4995179;28;20041;-80
2022/08/25 12:31:56;;;;;;;3.53;3.25;;;35.20;35.90;;;;;;4973955;28;20163;-80
2022/08/25 12:34:38;;;;;;;3.90;3.10;;;35.30;35.00;;;;;;4969614;28;20041;-80
2022/08/25 12:37:14;;;;;;;4.82;3.20;;;35.40;34.70;;;;;;4984416;28;20033;-79
2022/08/25 12:39:44;;;;;;;3.75;3.40;;;35.50;35.00;;;;;;4966095;28;20042;-78
2022/08/25 12:42:36;;;;;;;3.25;2.90;;;35.60;34.90;;;;;;4984119;28;20037;-79
2022/08/25 12:45:23;;;;;;;3.78;2.92;;;35.60;35.20;;;;;;4985371;28;20030;-79
2022/08/25 12:47:49;;;;;;;6.70;3.47;;;35.70;34.50;;;;;;4997879;28;20041;-79
2022/08/25 12:50:41;;;;;;;4.60;3.47;;;35.80;34.80;;;;;;4984009;28;20029;-78
2022/08/25 12:53:11;;;;;;;8.35;4.38;;;35.80;34.10;;;;;;4953874;28;20030;-78
2022/08/25 12:55:39;;;;;;;5.72;3.97;;;35.80;34.60;;;;;;4999185;28;20092;-79
2022/08/25 12:58:04;;;;;;;6.82;4.03;;;35.80;34.60;;;;;;4956281;28;20667;-80
2022/08/25 13:01:08;;;;;;;6.97;3.92;;;35.90;34.70;;;;;;4992778;28;20062;-80
2022/08/25 13:03:59;;;;;;;6.13;3.85;;;35.90;34.50;;;;;;4979254;28;20092;-79
2022/08/25 13:07:21;;;;;;;4.90;3.20;;;36.00;34.40;;;;;;4981928;28;20042;-79
2022/08/25 13:10:23;;;;;;;3.83;3.50;;;36.10;34.40;;;;;;4957292;28;20057;-79
2022/08/25 13:13:10;;;;;;;3.88;3.58;;;36.20;34.00;;;;;;4941520;28;20039;-79